createdAt,value
2023-04-18T00:08:28.263Z,38.55
2023-04-18T00:18:29.702Z,38.60
2023-04-18T00:28:31.080Z,38.63
2023-04-18T00:38:32.490Z,38.60
2023-04-18T00:48:33.895Z,38.51
2023-04-18T00:58:35.892Z,38.59
2023-04-18T01:08:37.294Z,38.56
2023-04-18T01:18:40.093Z,38.65
2023-04-18T01:28:41.537Z,38.59
2023-04-18T01:38:42.901Z,38.63
2023-04-18T01:48:44.271Z,38.59
2023-04-18T01:58:45.710Z,38.59
2023-04-18T02:08:47.101Z,38.67
2023-04-18T02:18:49.495Z,38.65
2023-04-18T02:28:50.865Z,38.76
2023-04-18T02:38:52.248Z,38.64
2023-04-18T02:48:53.638Z,38.78
2023-04-18T02:58:55.046Z,38.69
2023-04-18T03:08:56.444Z,38.77
2023-04-18T03:18:57.899Z,38.88
2023-04-18T03:28:59.265Z,38.83
2023-04-18T03:39:01.097Z,38.82
2023-04-18T03:49:02.502Z,38.95
2023-04-18T03:59:04.014Z,38.95
2023-04-18T04:09:05.544Z,39.02
2023-04-18T04:19:06.925Z,39.10
2023-04-18T04:29:09.951Z,38.76
2023-04-18T04:39:11.576Z,38.24
2023-04-18T04:49:12.961Z,38.05
2023-04-18T04:59:14.562Z,37.76
2023-04-18T05:09:15.948Z,37.58
2023-04-18T05:19:17.464Z,37.54
2023-04-18T05:29:19.029Z,37.45
2023-04-18T05:39:20.553Z,37.33
2023-04-18T05:49:21.992Z,37.25
2023-04-18T05:59:23.387Z,37.06
2023-04-18T06:09:24.788Z,36.25
2023-04-18T06:19:26.200Z,35.48
2023-04-18T06:29:30.178Z,34.87
2023-04-18T06:39:31.601Z,34.46
2023-04-18T06:49:32.975Z,34.76
2023-04-18T06:59:35.403Z,34.77
2023-04-18T07:09:36.943Z,34.97
2023-04-18T07:19:40.606Z,35.20
2023-04-18T07:29:42.178Z,35.43
2023-04-18T07:39:43.712Z,35.61
2023-04-18T07:49:45.939Z,35.66
2023-04-18T07:59:47.638Z,35.46
2023-04-18T08:09:49.028Z,35.49
2023-04-18T08:19:50.702Z,35.73
2023-04-18T08:29:52.095Z,35.92
2023-04-18T08:39:53.892Z,35.95
2023-04-18T08:49:56.133Z,35.84
2023-04-18T08:59:57.953Z,35.37
2023-04-18T09:09:59.397Z,35.01
2023-04-18T09:20:01.649Z,34.91
2023-04-18T09:30:03.166Z,34.58
2023-04-18T09:40:16.278Z,32.20
2023-04-18T09:50:20.115Z,30.74
2023-04-18T10:00:24.594Z,32.88
2023-04-18T10:10:26.303Z,33.23
2023-04-18T10:20:31.450Z,33.62
2023-04-18T10:30:41.685Z,34.01
2023-04-18T10:40:43.060Z,34.14
2023-04-18T10:51:11.986Z,34.28
2023-04-18T11:01:13.396Z,34.60
2023-04-18T11:11:14.823Z,34.42
2023-04-18T11:21:16.284Z,34.42
2023-04-18T11:31:17.819Z,34.33
2023-04-18T11:41:19.418Z,34.67
2023-04-18T11:51:38.132Z,34.61
2023-04-18T12:01:39.687Z,34.63
2023-04-18T12:11:41.583Z,34.65
2023-04-18T12:22:04.909Z,34.70
2023-04-18T12:32:06.289Z,34.80
2023-04-18T12:42:07.655Z,34.79
2023-04-18T12:52:09.038Z,34.69
2023-04-18T13:02:11.115Z,34.89
2023-04-18T13:12:12.955Z,35.08
2023-04-18T13:22:14.358Z,35.26
2023-04-18T13:32:15.947Z,35.14
2023-04-18T13:42:19.327Z,35.34
2023-04-18T13:52:20.882Z,35.20
2023-04-18T14:02:22.367Z,35.39
2023-04-18T14:12:23.952Z,35.30
2023-04-18T14:22:25.707Z,35.55
2023-04-18T14:32:27.130Z,35.42
2023-04-18T14:42:28.689Z,35.42
2023-04-18T14:52:30.150Z,35.53
2023-04-18T15:02:31.808Z,35.47
2023-04-18T15:12:33.399Z,35.47
2023-04-18T15:22:35.692Z,35.59
2023-04-18T15:32:40.249Z,35.69
2023-04-18T15:42:42.020Z,35.77
2023-04-18T15:52:43.772Z,35.98
2023-04-18T16:02:46.007Z,35.98
2023-04-18T16:12:47.812Z,36.08
2023-04-18T16:22:49.228Z,35.99
2023-04-18T16:32:50.833Z,35.99
2023-04-18T16:42:52.675Z,36.21
2023-04-18T16:52:54.241Z,36.14
2023-04-18T17:02:56.161Z,36.30
2023-04-18T17:12:58.377Z,36.37
2023-04-18T17:22:59.948Z,36.62
2023-04-18T17:33:01.936Z,36.81
2023-04-18T17:43:03.467Z,36.70
2023-04-18T17:53:05.056Z,36.89
2023-04-18T18:03:08.920Z,36.91
2023-04-18T18:13:10.647Z,37.06
2023-04-18T18:23:12.046Z,37.19
2023-04-18T18:33:13.733Z,37.51
2023-04-18T18:43:15.232Z,37.43
2023-04-18T18:53:17.836Z,37.56
2023-04-18T19:03:21.057Z,37.74
2023-04-18T19:13:23.832Z,37.84
2023-04-18T19:23:25.530Z,37.89
2023-04-18T19:33:27.769Z,38.00
2023-04-18T19:43:29.157Z,38.14
2023-04-18T19:53:30.900Z,38.12
2023-04-18T20:03:35.373Z,38.15
2023-04-18T20:13:37.300Z,38.25
2023-04-18T20:23:40.317Z,38.27
2023-04-18T20:33:41.793Z,38.16
2023-04-18T20:43:43.377Z,38.31
2023-04-18T20:53:44.771Z,38.26
2023-04-18T21:03:46.377Z,38.34
2023-04-18T21:13:47.840Z,38.42
2023-04-18T21:23:49.229Z,38.37
2023-04-18T21:33:57.805Z,38.32
2023-04-18T21:43:59.228Z,38.46
2023-04-18T21:54:00.860Z,38.51
2023-04-18T22:04:02.355Z,38.44
2023-04-18T22:14:04.001Z,38.45
2023-04-18T22:24:05.800Z,38.55
2023-04-18T22:34:07.180Z,38.61
2023-04-18T22:44:08.724Z,38.60
2023-04-18T22:54:10.198Z,38.61
2023-04-18T23:04:11.892Z,38.80
2023-04-18T23:14:15.660Z,38.67
2023-04-18T23:24:17.412Z,38.75
2023-04-18T23:34:18.826Z,38.78
2023-04-18T23:44:20.266Z,38.93
2023-04-18T23:54:21.665Z,39.00
